Wolf, WY (82844)

9:19 PM MST on November 25, 2014 (GMT -0700)
KWYSHERI2 | Change Station
CLOSE
Current Station
Personal Weather Station
Location: Sheridan, WY
Elevation: 3828 ft
Nearby Weather Stations
Active Advisory: Winter Weather Advisory Active Notice: Local Storm Report

Elev 3828 ft 44.81 °N, 106.98 °W | Updated 7 minutes ago

Snow
Snow
28.5 °F
Feels Like 23 °F
N
5.0
Wind Variable Wind from WNW
Gusts 5.0 mph

Today
High -- | Low -- °F
--% Chance of Precip.
Yesterday
High -- | Low -- °F
Precip. -- in
7:19 AM 4:32 PM
Waxing Crescent, 16% visible
Pressure 30.22 in
Visibility 5.0 miles
Clouds Overcast 4100 ft
Windchill 23 °F
Dew Point 26 °F
Humidity 91%
Rainfall 0.30 in
Snow Depth Not available.
UV out of 12
Pollen .10 out of 12
Air Quality Not available.
Flu Activity Not available.
METAR KSHR 260353Z AUTO 31016KT 5SM -SN BR OVC041 M02/M04 A3012 RMK AO2 PK WND 31029/0255 SLP232 P0001 T10171039 TSNO

More Conditions Fewer Conditions

Pressure 30.22 in
Visibility 5.0 miles
Clouds Overcast 4100 ft
Windchill 23 °F
Dew Point 26 °F
Humidity 91%
Rainfall 0.30 in
Snow Depth Not available.
UV out of 12
Pollen .10 out of 12
Air Quality Not available.
Flu Activity Not available.
METAR KSHR 260353Z AUTO 31016KT 5SM -SN BR OVC041 M02/M04 A3012 RMK AO2 PK WND 31029/0255 SLP232 P0001 T10171039 TSNO

More Conditions Fewer Conditions

10-Day Weather Forecast

Almanac

Astronomy

Nov. 25, 2014 Rise Set
Actual Time
Civil Twilight
Nautical Twilight
Astronomical Twilight
Moon
Length of Visible Light
Length of Day
Tomorrow will be .
, % of the Moon is Illuminated

Today's Extremes

State Highs State Lows

Community

WunderPhotos

Upload Photos

1,773,679 photos uploaded!

WunderBlogs® & News

Nearby

Air Quality

  Air Quality AQ Index Pollutant
Not available.

Snow Depth

Station Depth Elevation

Earthquake Activity

City Distance Mag. Time & Date
Minimum magnitude displayed is 2.5.

Coastal Water Temperatures

Place Temperature

Nearby Weather Stations